Time;durP1;ratioP1;P1;durP2;ratioP2;P2;SDS_P1;SDS_P2;PMS_P1;PMS_P2;Temp;Humidity;BMP_temperature;BMP_pressure;BME280_temperature;BME280_humidity;BME280_pressure;Samples;Min_cycle;Max_cycle;Signal;HPM_P1;HPM_P2
2022/01/21 00:01:03;;;;;;;5.95;4.05;;;0.00;99.90;;;;;;5024892;28;20103;-51
2022/01/21 00:03:29;;;;;;;5.70;2.38;;;0.00;99.90;;;;;;5022932;28;20028;-52
2022/01/21 00:05:55;;;;;;;8.68;2.08;;;0.00;99.90;;;;;;5013740;28;20597;-49
2022/01/21 00:08:21;;;;;;;2.10;1.80;;;0.00;99.90;;;;;;5008055;28;20034;-53
2022/01/21 00:10:46;;;;;;;3.40;2.70;;;0.00;99.90;;;;;;5009390;28;20471;-51
2022/01/21 00:13:28;;;;;;;7.50;2.47;;;0.00;99.90;;;;;;5004433;28;20030;-51
2022/01/21 00:15:53;;;;;;;4.55;2.78;;;0.00;99.90;;;;;;5006477;28;20067;-51
2022/01/21 00:18:19;;;;;;;2.22;2.08;;;0.10;99.90;;;;;;5006743;28;20156;-50
2022/01/21 00:31:42;;;;;;;5.68;2.25;;;0.10;99.90;;;;;;5006038;28;20208;-49
2022/01/21 00:34:08;;;;;;;5.63;2.75;;;0.10;99.90;;;;;;5004971;28;20041;-51
2022/01/21 00:36:34;;;;;;;5.30;2.35;;;0.10;99.90;;;;;;5006256;28;20034;-49
2022/01/21 00:39:00;;;;;;;3.00;2.70;;;0.10;99.90;;;;;;5006892;28;20030;-50
2022/01/21 00:41:30;;;;;;;4.18;1.73;;;0.10;99.90;;;;;;5008494;28;20053;-51
2022/01/21 00:43:55;;;;;;;3.00;2.45;;;0.10;99.90;;;;;;5005675;28;20136;-50
2022/01/21 00:46:21;;;;;;;4.93;2.70;;;0.10;99.90;;;;;;5007132;28;20478;-52
2022/01/21 00:48:47;;;;;;;2.72;1.65;;;0.10;99.90;;;;;;5012585;28;20087;-51
2022/01/21 00:51:13;;;;;;;8.68;2.35;;;0.10;99.90;;;;;;5006337;28;20113;-50
2022/01/21 00:53:38;;;;;;;8.55;2.45;;;0.10;99.90;;;;;;5004891;28;20796;-51
2022/01/21 00:56:04;;;;;;;2.80;2.55;;;0.10;99.90;;;;;;5007530;28;20033;-50
2022/01/21 00:58:30;;;;;;;5.28;2.33;;;0.10;99.90;;;;;;5008400;28;20037;-50
2022/01/21 01:00:56;;;;;;;3.13;2.50;;;0.20;99.90;;;;;;5011244;28;20041;-51
2022/01/21 01:03:21;;;;;;;9.18;2.72;;;0.10;99.90;;;;;;5005422;28;20064;-50
2022/01/21 01:05:49;;;;;;;5.93;2.83;;;0.10;99.90;;;;;;5004181;28;20111;-50
2022/01/21 01:08:15;;;;;;;5.78;2.25;;;0.10;99.90;;;;;;5011237;28;20108;-51
2022/01/21 01:21:43;;;;;;;10.30;2.85;;;0.10;99.90;;;;;;4999681;28;20425;-50
2022/01/21 01:29:23;;;;;;;5.65;2.00;;;0.10;99.90;;;;;;5005334;28;20126;-51
2022/01/21 01:31:49;;;;;;;3.72;2.25;;;0.20;99.90;;;;;;5010070;28;20041;-52
2022/01/21 01:34:15;;;;;;;3.40;1.73;;;0.20;99.90;;;;;;5004471;28;20132;-51
2022/01/21 01:36:43;;;;;;;9.90;3.38;;;0.20;99.90;;;;;;5009774;28;20026;-51
2022/01/21 01:39:46;;;;;;;7.20;2.60;;;0.10;99.90;;;;;;5008566;28;20557;-52
2022/01/21 01:50:04;;;;;;;3.00;2.25;;;0.10;99.90;;;;;;5007629;28;20056;-50
2022/01/21 01:52:30;;;;;;;5.40;3.10;;;0.10;99.90;;;;;;5008511;28;20137;-50
2022/01/21 01:54:56;;;;;;;3.63;2.50;;;0.10;99.90;;;;;;5004160;28;20048;-50
2022/01/21 01:57:23;;;;;;;3.15;2.20;;;0.10;99.90;;;;;;5009371;28;20384;-51
2022/01/21 01:59:49;;;;;;;5.03;1.92;;;0.10;99.90;;;;;;5029656;28;20033;-50
2022/01/21 02:02:16;;;;;;;5.68;2.53;;;0.10;99.90;;;;;;5022231;28;20045;-50
2022/01/21 02:04:45;;;;;;;4.30;2.50;;;0.10;99.90;;;;;;5006789;28;20422;-50
2022/01/21 02:07:11;;;;;;;5.53;2.50;;;0.10;99.90;;;;;;5005620;28;20789;-50
2022/01/21 02:09:37;;;;;;;4.72;2.08;;;0.10;99.90;;;;;;5001489;28;20486;-50
2022/01/21 02:12:05;;;;;;;2.97;2.20;;;0.10;99.90;;;;;;5005361;28;20022;-52
2022/01/21 02:14:37;;;;;;;6.35;2.30;;;0.10;99.90;;;;;;5008352;28;20465;-50
2022/01/21 02:22:28;;;;;;;2.72;2.38;;;0.10;99.90;;;;;;5014272;28;20501;-50
2022/01/21 02:24:58;;;;;;;3.38;2.22;;;0.00;99.90;;;;;;5006087;28;20045;-50
2022/01/21 02:27:24;;;;;;;4.95;2.85;;;0.00;99.90;;;;;;5011163;28;20398;-50
2022/01/21 02:29:54;;;;;;;3.63;1.98;;;0.00;99.90;;;;;;5007539;28;20021;-51
2022/01/21 02:32:20;;;;;;;5.43;2.72;;;0.00;99.90;;;;;;5002582;28;20383;-51
2022/01/21 02:34:47;;;;;;;2.47;1.77;;;0.00;99.90;;;;;;4999979;28;20030;-51
2022/01/21 02:37:16;;;;;;;6.40;3.05;;;0.00;99.90;;;;;;5004151;28;20061;-51
2022/01/21 02:39:42;;;;;;;;;;;0.00;99.90;;;;;;5004087;28;20041;-52
2022/01/21 02:42:08;;;;;;;2.67;2.10;;;0.00;99.90;;;;;;5000406;28;19921;-52
2022/01/21 02:44:34;;;;;;;6.25;2.22;;;0.10;99.90;;;;;;5004597;28;20058;-52
2022/01/21 02:47:02;;;;;;;4.57;2.40;;;0.00;99.90;;;;;;5007204;28;20060;-51
2022/01/21 02:49:30;;;;;;;4.63;2.72;;;0.00;99.90;;;;;;5006641;28;20037;-52
2022/01/21 02:52:00;;;;;;;2.60;2.40;;;0.00;99.90;;;;;;5025686;28;20124;-50
2022/01/21 02:54:30;;;;;;;3.03;2.47;;;0.00;99.90;;;;;;5006047;28;20546;-51
2022/01/21 02:56:57;;;;;;;2.40;2.00;;;0.00;99.90;;;;;;5008088;28;20391;-51
2022/01/21 02:59:23;;;;;;;5.15;2.40;;;0.00;99.90;;;;;;5005418;28;20029;-51
2022/01/21 03:01:49;;;;;;;5.05;2.13;;;0.00;99.90;;;;;;5003420;28;20048;-51
2022/01/21 03:04:23;;;;;;;3.80;2.88;;;0.00;99.90;;;;;;5001739;28;20037;-50
2022/01/21 03:06:49;;;;;;;6.80;2.25;;;0.00;99.90;;;;;;5006645;28;20147;-50
2022/01/21 03:09:15;;;;;;;7.38;3.40;;;0.00;99.90;;;;;;5005304;28;20025;-50
2022/01/21 03:11:40;;;;;;;2.38;2.08;;;0.00;99.90;;;;;;5009261;28;20053;-50
2022/01/21 03:14:06;;;;;;;3.58;2.67;;;0.00;99.90;;;;;;5004839;28;20021;-51
2022/01/21 03:16:32;;;;;;;5.57;3.47;;;0.00;99.90;;;;;;5003874;28;20530;-50
2022/01/21 03:18:57;;;;;;;5.57;2.30;;;0.00;99.90;;;;;;5019876;28;20033;-50
2022/01/21 03:21:23;;;;;;;4.10;3.08;;;0.00;99.90;;;;;;5005638;28;20029;-51
2022/01/21 03:23:52;;;;;;;3.95;2.65;;;0.00;99.90;;;;;;5004209;28;20596;-50
2022/01/21 03:26:22;;;;;;;4.43;2.22;;;0.00;99.90;;;;;;5001012;28;20486;-50
2022/01/21 03:28:53;;;;;;;4.55;2.90;;;0.00;99.90;;;;;;5001468;28;20076;-51
2022/01/21 03:31:19;;;;;;;4.47;2.45;;;0.00;99.90;;;;;;5002535;28;20166;-50
2022/01/21 03:33:45;;;;;;;3.60;2.53;;;0.00;99.90;;;;;;5002566;28;20768;-49
2022/01/21 03:36:11;;;;;;;4.07;2.60;;;0.00;99.90;;;;;;5001341;28;20033;-53
2022/01/21 03:38:38;;;;;;;6.05;2.90;;;0.00;99.90;;;;;;5003776;28;20084;-50
2022/01/21 03:41:04;;;;;;;7.97;3.28;;;0.00;99.90;;;;;;5003896;28;20048;-52
2022/01/21 03:43:31;;;;;;;3.88;2.13;;;0.00;99.90;;;;;;5003522;28;20068;-50
2022/01/21 03:45:57;;;;;;;3.92;2.50;;;0.00;99.90;;;;;;5000531;28;20611;-51
2022/01/21 03:48:23;;;;;;;5.65;3.30;;;0.00;99.90;;;;;;5004941;28;20030;-51
2022/01/21 03:50:49;;;;;;;5.00;2.50;;;0.00;99.90;;;;;;5009707;28;20033;-51
2022/01/21 03:53:15;;;;;;;5.07;3.10;;;-0.10;99.90;;;;;;5004795;28;20034;-52
2022/01/21 03:55:42;;;;;;;7.38;2.92;;;0.00;99.90;;;;;;5011466;28;20036;-51
2022/01/21 03:58:09;;;;;;;4.13;2.60;;;0.00;99.90;;;;;;5009235;28;20048;-51
2022/01/21 04:00:38;;;;;;;4.55;2.40;;;-0.10;99.90;;;;;;5002618;28;20068;-55
2022/01/21 04:03:04;;;;;;;5.07;2.65;;;-0.10;99.90;;;;;;5002281;28;20072;-51
2022/01/21 04:05:31;;;;;;;5.32;3.22;;;-0.10;99.90;;;;;;5005198;28;20025;-51
2022/01/21 04:07:56;;;;;;;4.75;3.00;;;-0.10;99.90;;;;;;5004550;28;20088;-51
2022/01/21 04:10:23;;;;;;;5.63;2.80;;;-0.10;99.90;;;;;;5004940;28;20026;-51
2022/01/21 04:12:49;;;;;;;3.65;3.22;;;-0.10;99.90;;;;;;5003799;28;20056;-51
2022/01/21 04:15:15;;;;;;;6.93;2.70;;;-0.10;99.90;;;;;;5000885;28;20033;-51
2022/01/21 04:17:41;;;;;;;6.13;2.83;;;-0.10;99.90;;;;;;5000774;28;20091;-51
2022/01/21 04:20:08;;;;;;;5.55;3.05;;;-0.10;99.90;;;;;;5001276;28;20567;-51
2022/01/21 04:22:34;;;;;;;3.50;2.75;;;-0.10;99.90;;;;;;5003599;28;20041;-51
2022/01/21 04:25:00;;;;;;;5.40;2.80;;;-0.10;99.90;;;;;;5002109;28;20037;-50
2022/01/21 04:27:27;;;;;;;5.32;2.85;;;-0.10;99.90;;;;;;5005335;28;20083;-50
2022/01/21 04:29:52;;;;;;;6.65;3.05;;;-0.10;99.90;;;;;;5004960;28;20116;-50
2022/01/21 04:32:18;;;;;;;4.13;2.78;;;-0.10;99.90;;;;;;5006621;28;20091;-50
2022/01/21 04:34:44;;;;;;;3.33;2.53;;;-0.20;99.90;;;;;;5005584;28;20029;-52
2022/01/21 04:37:12;;;;;;;4.10;2.63;;;-0.20;99.90;;;;;;5005497;28;20104;-51
2022/01/21 04:40:24;;;;;;;10.33;3.93;;;-0.20;99.90;;;;;;5007810;28;20518;-51
2022/01/21 04:47:56;;;;;;;7.60;2.88;;;-0.20;99.90;;;;;;5005609;28;20538;-51
2022/01/21 04:50:24;;;;;;;5.15;2.53;;;-0.30;99.90;;;;;;5009814;28;20037;-50
2022/01/21 04:52:50;;;;;;;6.47;2.40;;;-0.30;99.90;;;;;;5006964;28;21623;-51
2022/01/21 04:55:16;;;;;;;7.20;3.75;;;-0.30;99.90;;;;;;5005447;28;20048;-51
2022/01/21 04:57:42;;;;;;;3.85;2.85;;;-0.30;99.90;;;;;;5008010;28;20095;-51
2022/01/21 05:00:09;;;;;;;2.63;2.42;;;-0.40;99.90;;;;;;5025332;28;20133;-51
2022/01/21 05:02:35;;;;;;;5.60;2.38;;;-0.40;99.90;;;;;;5033147;28;20041;-49
2022/01/21 05:05:03;;;;;;;5.00;2.08;;;-0.40;99.90;;;;;;5020702;28;20033;-50
2022/01/21 05:07:33;;;;;;;12.65;3.17;;;-0.50;99.90;;;;;;5032582;28;20063;-50
2022/01/21 05:09:59;;;;;;;11.45;2.90;;;-0.50;99.90;;;;;;5036153;28;20022;-50
2022/01/21 05:12:26;;;;;;;6.70;3.38;;;-0.50;99.90;;;;;;5035269;28;20025;-50
2022/01/21 05:15:09;;;;;;;4.68;3.40;;;-0.50;99.90;;;;;;5029196;28;20040;-49
2022/01/21 05:17:43;;;;;;;4.50;2.92;;;-0.60;99.90;;;;;;5029097;28;20099;-50
2022/01/21 05:20:12;;;;;;;3.60;2.03;;;-0.60;99.90;;;;;;5019287;28;20041;-52
2022/01/21 05:22:38;;;;;;;2.42;2.13;;;-0.60;99.90;;;;;;5032963;28;20036;-50
2022/01/21 05:25:04;;;;;;;4.50;2.33;;;-0.60;99.90;;;;;;5033888;28;20388;-50
2022/01/21 05:27:30;;;;;;;4.07;2.70;;;-0.60;99.90;;;;;;5037413;28;20025;-50
2022/01/21 05:29:56;;;;;;;3.90;2.60;;;-0.70;99.90;;;;;;5033720;28;20025;-50
2022/01/21 05:32:22;;;;;;;3.67;2.47;;;-0.70;99.90;;;;;;5034217;28;20540;-50
2022/01/21 05:34:48;;;;;;;2.80;2.40;;;-0.80;99.90;;;;;;5033826;28;20053;-51
2022/01/21 05:37:13;;;;;;;6.88;2.40;;;-0.80;99.90;;;;;;5033421;28;20033;-50
2022/01/21 05:39:39;;;;;;;4.35;2.72;;;-0.90;99.90;;;;;;5039428;28;20447;-50
2022/01/21 05:42:06;;;;;;;3.33;2.15;;;-0.90;99.90;;;;;;5026618;28;20037;-50
2022/01/21 05:47:00;;;;;;;2.65;2.30;;;-0.90;99.90;;;;;;5023791;28;20541;-51
2022/01/21 05:49:28;;;;;;;2.80;1.98;;;-0.90;99.90;;;;;;5025561;28;20111;-50
2022/01/21 05:52:01;;;;;;;4.35;2.30;;;-0.90;99.90;;;;;;5014754;28;20018;-50
2022/01/21 05:54:27;;;;;;;4.80;3.25;;;-0.80;99.90;;;;;;5015034;28;20034;-53
2022/01/21 05:56:54;;;;;;;3.20;2.33;;;-0.90;99.90;;;;;;5016929;28;20502;-51
2022/01/21 05:59:20;;;;;;;3.35;2.10;;;-0.90;99.90;;;;;;5016336;28;20036;-50
2022/01/21 06:01:45;;;;;;;6.85;2.60;;;-0.90;99.90;;;;;;5014547;28;20033;-50
2022/01/21 06:04:11;;;;;;;8.55;2.30;;;-0.90;99.90;;;;;;5011017;28;20034;-50
2022/01/21 06:06:37;;;;;;;6.63;2.60;;;-1.00;99.90;;;;;;5017871;28;20054;-49
2022/01/21 06:09:07;;;;;;;4.25;2.55;;;-0.90;99.90;;;;;;5013358;28;20180;-50
2022/01/21 06:11:33;;;;;;;4.20;3.17;;;-0.90;99.90;;;;;;5007541;28;20167;-51
2022/01/21 06:14:01;;;;;;;4.18;3.72;;;-0.90;99.90;;;;;;5029966;28;20039;-49
2022/01/21 06:16:26;;;;;;;4.68;2.63;;;-0.90;99.90;;;;;;5006758;28;20103;-50
2022/01/21 06:18:52;;;;;;;8.57;2.47;;;-0.90;99.90;;;;;;5015280;28;20033;-49
2022/01/21 06:21:18;;;;;;;7.43;2.67;;;-0.90;99.90;;;;;;5020839;28;20475;-51
2022/01/21 06:23:44;;;;;;;3.63;2.40;;;-0.90;99.90;;;;;;5036361;28;20398;-50
2022/01/21 06:26:09;;;;;;;5.47;2.00;;;-0.90;99.90;;;;;;5022025;28;20152;-51
2022/01/21 06:28:35;;;;;;;2.90;1.80;;;-0.90;99.90;;;;;;5017190;28;20050;-49
2022/01/21 06:31:01;;;;;;;4.72;2.45;;;-0.90;99.90;;;;;;5017620;28;20034;-50
2022/01/21 06:33:27;;;;;;;4.07;2.75;;;-1.00;99.90;;;;;;5021291;28;20017;-50
2022/01/21 06:35:53;;;;;;;5.30;1.85;;;-1.00;99.90;;;;;;5013132;28;20101;-50
2022/01/21 06:38:19;;;;;;;4.05;2.45;;;-1.00;99.90;;;;;;5012771;28;20040;-50
2022/01/21 06:40:46;;;;;;;6.45;2.50;;;-1.00;99.90;;;;;;5026615;28;20049;-50
2022/01/21 06:43:13;;;;;;;4.90;2.28;;;-0.90;99.90;;;;;;5026208;28;20045;-50
2022/01/21 06:45:39;;;;;;;4.32;2.70;;;-0.90;99.90;;;;;;5021490;28;20037;-50
2022/01/21 06:48:04;;;;;;;6.95;2.90;;;-1.00;99.90;;;;;;5014556;28;20568;-51
2022/01/21 06:50:35;;;;;;;2.45;1.85;;;-1.00;99.90;;;;;;5023108;28;20509;-50
2022/01/21 06:53:01;;;;;;;4.97;3.85;;;-1.00;99.90;;;;;;5020746;28;20483;-49
2022/01/21 06:55:27;;;;;;;9.07;3.78;;;-1.00;99.90;;;;;;5019610;28;20076;-50
2022/01/21 06:57:53;;;;;;;7.13;2.65;;;-1.00;99.90;;;;;;5022345;28;20095;-51
2022/01/21 07:00:20;;;;;;;4.82;2.90;;;-1.00;99.90;;;;;;5020068;28;20026;-52
2022/01/21 07:02:46;;;;;;;4.65;3.45;;;-0.90;99.90;;;;;;5017432;28;20050;-49
2022/01/21 07:05:12;;;;;;;3.45;2.80;;;-1.00;99.90;;;;;;5022250;28;20065;-50
2022/01/21 07:07:38;;;;;;;4.53;2.13;;;-1.00;99.90;;;;;;5027452;28;20041;-49
2022/01/21 07:10:06;;;;;;;4.68;2.10;;;-1.10;99.90;;;;;;5034586;28;20033;-50
2022/01/21 07:12:33;;;;;;;3.93;2.77;;;-1.00;99.90;;;;;;5027231;28;20475;-50
2022/01/21 07:14:58;;;;;;;3.67;2.67;;;-1.00;99.90;;;;;;5042119;28;20269;-50
2022/01/21 07:17:24;;;;;;;3.88;3.03;;;-1.00;99.90;;;;;;5007072;28;20124;-53
2022/01/21 07:19:50;;;;;;;4.53;2.60;;;-1.00;99.90;;;;;;5032723;28;20060;-51
2022/01/21 07:22:16;;;;;;;2.25;2.05;;;-1.10;99.90;;;;;;5007320;28;20457;-51
2022/01/21 07:24:41;;;;;;;2.63;1.85;;;-1.10;99.90;;;;;;5006570;28;20041;-51
2022/01/21 07:27:07;;;;;;;12.05;2.70;;;-1.10;99.90;;;;;;5007427;28;20478;-51
2022/01/21 07:29:33;;;;;;;4.18;1.83;;;-1.10;99.90;;;;;;5003979;28;20506;-49
2022/01/21 07:31:59;;;;;;;2.72;1.73;;;-1.10;99.90;;;;;;5005851;28;20478;-49
2022/01/21 07:34:26;;;;;;;5.82;2.30;;;-1.10;99.90;;;;;;5004066;28;20039;-50
2022/01/21 07:36:53;;;;;;;4.90;2.30;;;-1.10;99.90;;;;;;5004509;28;20026;-49
2022/01/21 07:39:19;;;;;;;6.03;1.70;;;-1.10;99.90;;;;;;5003004;28;20235;-50
2022/01/21 07:41:45;;;;;;;3.95;1.77;;;-1.20;99.90;;;;;;5000454;28;20056;-50
2022/01/21 07:44:14;;;;;;;5.50;2.08;;;-1.10;99.90;;;;;;5002068;28;20145;-49
2022/01/21 07:46:41;;;;;;;7.00;2.33;;;-1.20;99.90;;;;;;4999933;28;20042;-50
2022/01/21 07:49:08;;;;;;;5.60;2.20;;;-1.10;99.90;;;;;;4998943;28;20088;-50
2022/01/21 07:51:34;;;;;;;4.95;1.80;;;-1.10;99.90;;;;;;5003353;28;20112;-50
2022/01/21 07:54:00;;;;;;;3.42;1.75;;;-1.20;99.90;;;;;;5004496;28;20506;-51
2022/01/21 07:56:25;;;;;;;6.38;2.60;;;-1.20;99.90;;;;;;4997206;28;20038;-50
2022/01/21 07:58:52;;;;;;;3.35;1.90;;;-1.10;99.90;;;;;;4999238;28;20078;-50
2022/01/21 08:01:18;;;;;;;4.07;2.60;;;-1.10;99.90;;;;;;5000268;28;20052;-51
2022/01/21 08:03:44;;;;;;;1.63;1.50;;;-1.10;99.90;;;;;;5008003;28;20034;-50
2022/01/21 08:06:10;;;;;;;9.13;2.35;;;-1.10;99.90;;;;;;5013522;28;20701;-50
2022/01/21 08:08:35;;;;;;;3.50;2.05;;;-1.10;99.90;;;;;;5002965;28;20037;-50
2022/01/21 08:11:01;;;;;;;6.28;1.73;;;-1.10;99.90;;;;;;5001495;28;20787;-50
2022/01/21 08:13:27;;;;;;;4.63;2.60;;;-1.20;99.90;;;;;;5012678;28;20041;-50
2022/01/21 08:15:54;;;;;;;4.55;2.75;;;-1.20;99.90;;;;;;5026351;28;20044;-50
2022/01/21 08:18:20;;;;;;;4.07;2.80;;;-1.20;99.90;;;;;;5017877;28;21199;-52
2022/01/21 08:20:45;;;;;;;3.67;3.10;;;-1.20;99.90;;;;;;5007490;28;20159;-50
2022/01/21 08:23:12;;;;;;;3.28;2.72;;;-1.10;99.90;;;;;;5003150;28;20044;-50
2022/01/21 08:25:38;;;;;;;2.30;1.92;;;-1.10;99.90;;;;;;5023326;28;20064;-50
2022/01/21 08:28:04;;;;;;;3.70;2.92;;;-1.10;99.90;;;;;;5016135;28;20033;-50
2022/01/21 08:30:30;;;;;;;8.48;2.53;;;-1.10;99.90;;;;;;5005091;28;20108;-50
2022/01/21 08:32:56;;;;;;;5.15;3.05;;;-1.00;99.90;;;;;;4996602;28;20437;-50
2022/01/21 08:35:22;;;;;;;3.78;2.60;;;-0.90;99.90;;;;;;5017926;28;20025;-50
2022/01/21 08:37:52;;;;;;;5.65;2.75;;;-0.90;99.90;;;;;;5011143;28;20519;-50
2022/01/21 08:40:18;;;;;;;6.68;2.67;;;-0.90;99.90;;;;;;5004452;28;20408;-50
2022/01/21 08:42:43;;;;;;;3.63;2.58;;;-0.80;99.90;;;;;;5041461;28;20044;-50
2022/01/21 08:45:11;;;;;;;7.20;2.90;;;-0.80;99.90;;;;;;5006181;28;20045;-50
2022/01/21 08:47:37;;;;;;;6.30;2.97;;;-0.70;99.90;;;;;;5021427;28;20041;-49
2022/01/21 08:50:07;;;;;;;4.15;3.00;;;-0.60;99.90;;;;;;5014340;28;20281;-49
2022/01/21 08:52:36;;;;;;;7.03;2.75;;;-0.40;99.90;;;;;;5013453;28;20029;-51
2022/01/21 08:55:07;;;;;;;4.30;2.65;;;-0.40;99.90;;;;;;5025524;28;20116;-49
2022/01/21 08:57:34;;;;;;;6.13;2.88;;;-0.30;99.90;;;;;;5019511;28;20953;-49
2022/01/21 09:00:00;;;;;;;5.18;2.60;;;-0.30;99.90;;;;;;5012564;28;20508;-49
2022/01/21 09:02:26;;;;;;;5.05;2.72;;;-0.30;99.90;;;;;;5006092;28;20090;-49
2022/01/21 09:04:52;;;;;;;6.40;3.95;;;-0.40;99.90;;;;;;5008373;28;20444;-49
2022/01/21 09:07:17;;;;;;;4.00;2.97;;;-0.40;99.90;;;;;;5019619;28;21230;-49
2022/01/21 09:09:43;;;;;;;5.15;3.17;;;-0.30;99.90;;;;;;5021544;28;20130;-49
2022/01/21 09:12:09;;;;;;;3.47;3.17;;;-0.40;99.90;;;;;;5002975;28;20104;-50
2022/01/21 09:14:35;;;;;;;6.10;2.55;;;-0.40;99.90;;;;;;5038007;28;20040;-49
2022/01/21 09:17:00;;;;;;;2.47;2.28;;;-0.40;99.90;;;;;;5014054;28;20037;-49
2022/01/21 09:19:27;;;;;;;4.75;3.55;;;-0.40;99.90;;;;;;5014501;28;20034;-49
2022/01/21 09:21:55;;;;;;;4.80;2.42;;;-0.40;99.90;;;;;;5020463;28;20127;-49
2022/01/21 09:24:21;;;;;;;3.50;2.97;;;-0.30;99.90;;;;;;5023366;28;20490;-49
2022/01/21 09:26:48;;;;;;;4.60;2.85;;;-0.40;99.90;;;;;;5025187;28;20042;-50
2022/01/21 09:29:14;;;;;;;3.28;2.67;;;-0.30;99.90;;;;;;5016448;28;20022;-50
2022/01/21 09:31:40;;;;;;;5.82;3.15;;;-0.30;99.90;;;;;;5020029;28;20407;-50
2022/01/21 09:34:06;;;;;;;6.70;4.07;;;-0.30;99.90;;;;;;5013108;28;20034;-50
2022/01/21 09:36:33;;;;;;;8.43;4.38;;;-0.20;99.90;;;;;;5023838;28;20083;-50
2022/01/21 09:39:00;;;;;;;12.68;5.50;;;-0.20;99.90;;;;;;5016884;28;21028;-50
2022/01/21 09:41:28;;;;;;;11.43;3.08;;;-0.20;99.90;;;;;;5008940;28;20052;-50
2022/01/21 09:43:55;;;;;;;6.30;3.10;;;-0.20;99.90;;;;;;5016802;28;20055;-50
2022/01/21 09:46:31;;;;;;;5.97;2.63;;;-0.20;99.90;;;;;;5012916;28;20034;-50
2022/01/21 09:49:07;;;;;;;6.30;2.80;;;-0.20;99.90;;;;;;5006129;28;20513;-49
2022/01/21 09:51:35;;;;;;;3.72;2.45;;;-0.20;99.90;;;;;;5005005;28;20107;-50
2022/01/21 09:54:05;;;;;;;3.13;2.73;;;-0.20;99.90;;;;;;5000012;28;20057;-50
2022/01/21 09:56:32;;;;;;;10.15;3.17;;;-0.10;99.90;;;;;;5003492;28;20051;-50
2022/01/21 09:58:59;;;;;;;2.70;2.42;;;-0.10;99.90;;;;;;5002813;28;20032;-50
2022/01/21 10:01:27;;;;;;;10.57;3.03;;;-0.10;99.90;;;;;;5008802;28;20045;-49
2022/01/21 10:03:53;;;;;;;6.78;3.13;;;0.00;99.90;;;;;;5025200;28;20049;-50
2022/01/21 10:06:23;;;;;;;6.05;2.80;;;0.00;99.90;;;;;;5024180;28;20555;-49
2022/01/21 10:08:50;;;;;;;19.98;3.88;;;0.10;99.90;;;;;;5019629;28;20425;-50
2022/01/21 10:11:18;;;;;;;2.85;2.38;;;0.20;99.90;;;;;;5019141;28;20052;-50
2022/01/21 10:13:47;;;;;;;3.30;2.17;;;0.20;99.90;;;;;;5017310;28;20159;-50
2022/01/21 10:16:13;;;;;;;4.82;1.90;;;0.20;99.90;;;;;;5017608;28;20047;-51
2022/01/21 10:19:00;;;;;;;2.85;1.90;;;0.20;99.90;;;;;;5019011;28;20036;-50
2022/01/21 10:21:34;;;;;;;2.75;2.25;;;0.20;99.90;;;;;;5020286;28;20100;-50
2022/01/21 10:24:05;;;;;;;2.53;2.17;;;0.20;99.90;;;;;;5016527;28;20068;-52
2022/01/21 10:26:31;;;;;;;3.38;1.67;;;0.30;99.90;;;;;;5015431;28;20032;-50
2022/01/21 10:28:57;;;;;;;3.20;2.20;;;0.40;99.90;;;;;;5018774;28;20037;-50
2022/01/21 10:31:24;;;;;;;2.28;1.70;;;0.40;99.90;;;;;;5005580;28;20049;-50
2022/01/21 10:33:51;;;;;;;3.00;2.38;;;0.40;99.90;;;;;;5002861;28;20056;-50
2022/01/21 10:36:28;;;;;;;3.10;1.85;;;0.40;99.90;;;;;;4999023;28;20033;-51
2022/01/21 10:39:17;;;;;;;2.30;1.65;;;0.50;99.90;;;;;;5020070;28;20033;-52
2022/01/21 10:41:46;;;;;;;2.67;1.63;;;0.50;99.90;;;;;;5028172;28;20056;-52
2022/01/21 10:44:20;;;;;;;1.73;1.63;;;0.60;99.90;;;;;;5061666;28;20467;-52
2022/01/21 10:47:11;;;;;;;5.35;2.20;;;0.70;99.90;;;;;;5030519;28;20026;-52
2022/01/21 10:49:39;;;;;;;5.32;1.60;;;0.70;99.90;;;;;;5025231;28;20029;-52
2022/01/21 10:52:06;;;;;;;2.17;1.90;;;0.70;99.90;;;;;;5024068;28;20030;-52
2022/01/21 10:54:32;;;;;;;5.28;2.05;;;0.80;99.90;;;;;;5026555;28;20029;-52
2022/01/21 10:57:12;;;;;;;6.47;2.60;;;0.80;99.90;;;;;;5029258;28;20109;-52
2022/01/21 11:00:02;;;;;;;4.47;2.50;;;0.80;99.90;;;;;;5028979;28;20030;-52
2022/01/21 11:02:39;;;;;;;8.15;2.67;;;0.80;99.90;;;;;;5028076;28;20758;-52
2022/01/21 11:05:14;;;;;;;2.50;1.70;;;0.80;99.90;;;;;;5031872;28;20038;-52
2022/01/21 11:08:10;;;;;;;5.25;1.75;;;0.80;99.90;;;;;;5035350;28;20014;-52
2022/01/21 11:10:42;;;;;;;4.95;1.95;;;0.80;99.90;;;;;;5014560;28;20057;-53
2022/01/21 11:13:18;;;;;;;4.22;1.67;;;0.80;99.90;;;;;;5031475;28;20030;-50
2022/01/21 11:15:54;;;;;;;5.15;2.13;;;0.80;99.90;;;;;;5032878;28;20033;-52
2022/01/21 11:18:22;;;;;;;3.08;2.20;;;0.90;99.90;;;;;;5030306;28;20377;-52
2022/01/21 11:20:50;;;;;;;4.63;2.38;;;0.90;99.90;;;;;;5033344;28;20123;-51
2022/01/21 11:23:17;;;;;;;3.08;2.13;;;0.90;99.90;;;;;;5030319;28;20097;-51
2022/01/21 11:25:50;;;;;;;6.68;2.63;;;0.90;99.90;;;;;;5034394;28;20048;-52
2022/01/21 11:28:21;;;;;;;10.23;2.10;;;0.90;99.90;;;;;;5037546;28;20686;-51
2022/01/21 11:30:48;;;;;;;4.32;1.70;;;0.90;99.90;;;;;;5046116;28;20087;-52
2022/01/21 11:33:14;;;;;;;7.82;2.00;;;0.90;99.90;;;;;;5066135;28;20056;-52
2022/01/21 11:35:40;;;;;;;4.20;1.90;;;0.90;99.90;;;;;;5047385;28;20085;-52
2022/01/21 11:38:09;;;;;;;6.18;1.75;;;1.00;99.90;;;;;;5051117;28;20040;-52
2022/01/21 11:40:35;;;;;;;2.85;2.00;;;1.00;99.90;;;;;;5043497;28;20051;-52
2022/01/21 11:43:03;;;;;;;5.68;2.88;;;1.00;99.90;;;;;;5046785;28;20466;-53
2022/01/21 11:50:40;;;;;;;2.22;1.98;;;0.90;99.90;;;;;;5062751;28;20556;-54
2022/01/21 11:53:06;;;;;;;5.15;2.50;;;0.90;99.90;;;;;;5051992;28;20079;-52
2022/01/21 11:55:39;;;;;;;3.30;2.47;;;1.00;99.90;;;;;;5052031;28;20029;-52
2022/01/21 11:58:19;;;;;;;4.22;2.67;;;1.00;99.90;;;;;;5045387;28;20028;-52
2022/01/21 12:00:49;;;;;;;2.33;1.67;;;1.10;99.90;;;;;;5031679;28;20053;-52
2022/01/21 12:03:17;;;;;;;3.25;1.65;;;1.10;99.90;;;;;;5041589;28;20030;-54
2022/01/21 12:05:43;;;;;;;4.57;1.83;;;1.20;99.90;;;;;;5045049;28;20369;-53
2022/01/21 12:08:09;;;;;;;4.97;2.22;;;1.20;99.90;;;;;;5033543;28;20086;-52
2022/01/21 12:10:43;;;;;;;1.90;1.80;;;1.20;99.90;;;;;;5036071;28;20075;-53
2022/01/21 12:13:12;;;;;;;2.63;2.35;;;1.30;99.90;;;;;;5050845;28;20079;-54
2022/01/21 12:21:05;;;;;;;2.75;2.03;;;1.40;99.90;;;;;;5058132;28;20032;-52
2022/01/21 12:23:44;;;;;;;3.65;1.80;;;1.40;99.90;;;;;;5046527;28;20120;-54
2022/01/21 12:26:16;;;;;;;3.60;2.50;;;1.40;99.90;;;;;;5045261;28;20025;-53
2022/01/21 12:29:06;;;;;;;2.25;1.58;;;1.40;99.90;;;;;;5049989;28;20036;-53
2022/01/21 12:31:39;;;;;;;2.92;1.50;;;1.50;99.90;;;;;;5033586;28;20092;-51
2022/01/21 12:34:09;;;;;;;6.10;2.15;;;1.60;99.90;;;;;;5047418;28;20056;-52
2022/01/21 12:36:40;;;;;;;3.15;2.10;;;1.60;99.90;;;;;;5042286;28;20040;-52
2022/01/21 12:39:39;;;;;;;7.82;1.92;;;1.60;99.90;;;;;;5047633;28;20033;-52
2022/01/21 12:42:20;;;;;;;3.00;1.58;;;1.60;98.60;;;;;;5041617;28;20044;-53
2022/01/21 12:44:50;;;;;;;3.28;1.75;;;1.50;99.90;;;;;;5036079;28;20037;-53
2022/01/21 12:47:40;;;;;;;3.42;2.08;;;1.50;97.10;;;;;;5042054;28;20029;-52
2022/01/21 12:50:31;;;;;;;8.15;2.33;;;1.40;98.10;;;;;;5057929;28;20029;-52
2022/01/21 12:53:16;;;;;;;2.55;1.38;;;1.50;94.00;;;;;;5039778;28;20364;-52
2022/01/21 12:56:03;;;;;;;2.83;1.73;;;1.50;99.90;;;;;;5035430;28;20039;-52
2022/01/21 12:58:31;;;;;;;3.00;2.17;;;1.50;99.90;;;;;;5045565;28;20036;-52
2022/01/21 13:01:02;;;;;;;5.28;2.03;;;1.50;98.60;;;;;;5035270;28;20051;-52
2022/01/21 13:03:37;;;;;;;5.90;2.08;;;1.50;99.90;;;;;;5049815;28;20028;-53
2022/01/21 13:06:18;;;;;;;7.63;2.33;;;1.60;98.40;;;;;;5040963;28;20029;-53
2022/01/21 13:09:08;;;;;;;3.72;1.85;;;1.60;99.90;;;;;;5045326;28;20020;-52
2022/01/21 13:11:36;;;;;;;3.92;1.80;;;1.50;99.90;;;;;;5042135;28;20120;-52
2022/01/21 13:14:46;;;;;;;2.45;2.22;;;1.50;99.90;;;;;;5047048;28;20028;-53
2022/01/21 13:17:06;;;;;;;15.10;2.50;;;1.50;99.20;;;;;;5052100;28;20779;-56
2022/01/21 13:19:53;;;;;;;2.67;1.50;;;1.50;99.90;;;;;;5049619;28;20532;-52
2022/01/21 13:22:35;;;;;;;2.60;1.63;;;1.50;99.90;;;;;;5046143;28;20040;-52
2022/01/21 13:25:10;;;;;;;4.35;1.40;;;1.60;99.90;;;;;;5051768;28;20045;-53
2022/01/21 13:27:48;;;;;;;1.77;1.65;;;1.70;99.90;;;;;;5043092;28;20040;-54
2022/01/21 13:30:15;;;;;;;;;;;1.80;99.90;;;;;;5029326;28;20052;-53
2022/01/21 13:32:42;;;;;;;2.92;2.28;;;1.70;99.90;;;;;;5030451;28;19912;-53
2022/01/21 13:35:23;;;;;;;8.18;2.13;;;1.80;99.90;;;;;;5033283;28;20052;-54
2022/01/21 13:38:09;;;;;;;4.72;1.73;;;1.70;99.90;;;;;;5040264;28;20022;-56
2022/01/21 13:40:46;;;;;;;3.10;1.92;;;1.70;99.90;;;;;;5037978;28;20361;-53
2022/01/21 13:43:20;;;;;;;3.08;1.65;;;1.70;99.90;;;;;;5030400;28;20038;-54
2022/01/21 13:46:00;;;;;;;2.17;1.65;;;1.60;99.90;;;;;;5029306;28;20041;-53
2022/01/21 13:48:27;;;;;;;3.50;1.70;;;1.60;99.90;;;;;;5034729;28;20122;-53
2022/01/21 13:50:54;;;;;;;6.10;1.52;;;1.50;99.90;;;;;;5033454;28;20038;-52
2022/01/21 13:53:24;;;;;;;4.35;1.73;;;1.50;99.90;;;;;;5035842;28;20030;-54
2022/01/21 13:55:55;;;;;;;6.57;2.35;;;1.50;99.90;;;;;;5034474;28;20037;-53
2022/01/21 13:58:24;;;;;;;3.10;1.92;;;1.50;99.90;;;;;;5038582;28;20048;-53
2022/01/21 14:01:05;;;;;;;4.88;1.88;;;1.40;99.90;;;;;;5060154;28;20040;-52